createdAt,value
2022-08-09T00:00:35.828Z,102510.56
2022-08-09T00:02:49.230Z,102513.34
2022-08-09T00:05:03.064Z,102508.16
2022-08-09T00:07:18.249Z,102510.06
2022-08-09T00:09:21.583Z,102508.34
2022-08-09T00:12:03.402Z,102503.19
2022-08-09T00:13:53.300Z,102508.81
2022-08-09T00:16:02.758Z,102514.34
2022-08-09T00:18:11.488Z,102511.84
2022-08-09T00:20:17.530Z,102511.94
2022-08-09T00:22:22.477Z,102514.72
2022-08-09T00:24:27.749Z,102509.44
2022-08-09T00:26:32.983Z,102515.66
2022-08-09T00:28:37.945Z,102510.31
2022-08-09T00:30:42.665Z,102507.63
2022-08-09T00:32:46.671Z,102504.97
2022-08-09T00:34:51.962Z,102506.84
2022-08-09T00:36:57.226Z,102506.09
2022-08-09T00:39:02.545Z,102501.88
2022-08-09T00:41:09.339Z,102505.72
2022-08-09T00:44:13.490Z,102504.16
2022-08-09T00:45:58.308Z,102501.41
2022-08-09T00:48:02.461Z,102497.69
2022-08-09T00:50:14.306Z,102496.75
2022-08-09T00:52:19.897Z,102493.97
2022-08-09T00:54:31.442Z,102497.50
2022-08-09T00:56:39.340Z,102499.22
2022-08-09T00:58:43.501Z,102492.94
2022-08-09T01:00:55.940Z,102490.25
2022-08-09T01:03:12.564Z,102492.81
2022-08-09T01:05:54.349Z,102488.44
2022-08-09T01:08:01.495Z,102482.22
2022-08-09T01:10:11.015Z,102485.06
2022-08-09T01:12:24.467Z,102484.41
2022-08-09T01:14:33.467Z,102492.59
2022-08-09T01:16:47.503Z,102494.63
2022-08-09T01:19:01.991Z,102492.13
2022-08-09T01:21:20.902Z,102492.28
2022-08-09T01:24:02.678Z,102494.03
2022-08-09T01:26:23.981Z,102494.81
2022-08-09T01:28:33.040Z,102494.72
2022-08-09T01:30:51.922Z,102486.78
2022-08-09T01:32:59.898Z,102491.25
2022-08-09T01:35:28.606Z,102490.41
2022-08-09T01:38:05.581Z,102487.81
2022-08-09T01:40:02.805Z,102492.28
2022-08-09T01:42:11.297Z,102496.00
2022-08-09T01:44:18.107Z,102490.75
2022-08-09T01:46:27.452Z,102495.44
2022-08-09T01:48:32.926Z,102491.03
2022-08-09T01:50:41.792Z,102491.13
2022-08-09T01:52:47.756Z,102490.34
2022-08-09T01:54:57.809Z,102489.59
2022-08-09T01:57:08.254Z,102491.47
2022-08-09T01:59:17.161Z,102490.72
2022-08-09T02:01:57.999Z,102491.66
2022-08-09T02:03:50.345Z,102496.16
2022-08-09T02:06:03.916Z,102500.63
2022-08-09T02:08:41.255Z,102494.34
2022-08-09T02:10:42.825Z,102491.66
2022-08-09T02:12:56.381Z,102497.03
2022-08-09T02:15:02.805Z,102491.78
2022-08-09T02:17:54.980Z,102495.47
2022-08-09T02:19:43.549Z,102499.97
2022-08-09T02:21:55.528Z,102495.66
2022-08-09T02:24:01.970Z,102499.28
2022-08-09T02:26:07.685Z,102500.13
2022-08-09T02:28:35.557Z,102487.06
2022-08-09T02:30:43.532Z,102492.41
2022-08-09T02:32:54.538Z,102498.59
2022-08-09T02:35:17.352Z,102501.34
2022-08-09T02:37:24.193Z,102499.81
2022-08-09T02:39:42.090Z,102495.31
2022-08-09T02:41:52.483Z,102498.06
2022-08-09T02:44:10.353Z,102488.28
2022-08-09T02:46:30.647Z,102488.19
2022-08-09T02:48:37.810Z,102496.84
2022-08-09T02:50:44.901Z,102489.63
2022-08-09T02:52:55.339Z,102487.81
2022-08-09T02:55:03.261Z,102492.41
2022-08-09T02:57:25.501Z,102496.00
2022-08-09T02:59:36.595Z,102497.94
2022-08-09T03:01:43.132Z,102492.66
2022-08-09T03:04:17.660Z,102490.06
2022-08-09T03:06:25.083Z,102495.41
2022-08-09T03:08:32.354Z,102493.72
2022-08-09T03:10:37.894Z,102489.22
2022-08-09T03:12:43.355Z,102486.53
2022-08-09T03:14:55.208Z,102491.03
2022-08-09T03:17:01.816Z,102485.69
2022-08-09T03:19:52.836Z,102489.31
2022-08-09T03:21:36.418Z,102489.41
2022-08-09T03:24:01.566Z,102483.28
2022-08-09T03:26:08.817Z,102487.84
2022-08-09T03:28:13.692Z,102492.50
2022-08-09T03:30:30.254Z,102487.25
2022-08-09T03:32:39.316Z,102485.53
2022-08-09T03:34:44.487Z,102482.94
2022-08-09T03:36:59.432Z,102482.94
2022-08-09T03:39:06.442Z,102488.28
2022-08-09T03:41:10.287Z,102481.22
2022-08-09T03:43:19.429Z,102481.22
2022-08-09T03:46:04.569Z,102483.03
2022-08-09T03:47:47.881Z,102481.31
2022-08-09T03:49:58.223Z,102475.97
2022-08-09T03:52:04.157Z,102475.13
2022-08-09T03:54:10.885Z,102478.56
2022-08-09T03:56:15.230Z,102473.31
2022-08-09T03:58:21.027Z,102472.53
2022-08-09T04:00:25.343Z,102479.69
2022-08-09T04:02:32.576Z,102476.25
2022-08-09T04:04:38.747Z,102474.53
2022-08-09T04:06:49.307Z,102463.09
2022-08-09T04:08:53.733Z,102463.94
2022-08-09T04:11:01.342Z,102463.84
2022-08-09T04:13:11.526Z,102469.19
2022-08-09T04:15:29.703Z,102463.66
2022-08-09T04:17:42.283Z,102455.72
2022-08-09T04:19:51.517Z,102454.97
2022-08-09T04:22:03.202Z,102459.53
2022-08-09T04:24:07.300Z,102452.47
2022-08-09T04:26:11.242Z,102447.31
2022-08-09T04:28:14.780Z,102452.75
2022-08-09T04:30:37.550Z,102450.25
2022-08-09T04:32:47.678Z,102458.34
2022-08-09T04:34:54.381Z,102462.81
2022-08-09T04:37:03.565Z,102466.41
2022-08-09T04:39:09.921Z,102468.53
2022-08-09T04:41:15.654Z,102466.88
2022-08-09T04:43:20.351Z,102472.31
2022-08-09T04:45:25.090Z,102479.50
2022-08-09T04:47:59.145Z,102473.41
2022-08-09T04:49:57.481Z,102483.28
2022-08-09T04:52:02.488Z,102474.50
2022-08-09T04:54:06.903Z,102475.44
2022-08-09T04:56:10.881Z,102471.94
2022-08-09T04:58:14.517Z,102478.97
2022-08-09T05:00:18.395Z,102483.38
2022-08-09T05:02:22.072Z,102490.53
2022-08-09T05:04:31.261Z,102494.91
2022-08-09T05:06:36.043Z,102489.50
2022-08-09T05:08:43.985Z,102491.09
2022-08-09T05:10:51.521Z,102491.75
2022-08-09T05:12:55.213Z,102495.22
2022-08-09T05:14:59.027Z,102492.44
2022-08-09T05:17:02.750Z,102497.53
2022-08-09T05:19:07.727Z,102494.59
2022-08-09T05:21:24.383Z,102498.81
2022-08-09T05:23:54.467Z,102495.88
2022-08-09T05:25:54.159Z,102498.28
2022-08-09T05:28:00.654Z,102497.25
2022-08-09T05:30:04.747Z,102502.34
2022-08-09T05:32:10.499Z,102498.63
2022-08-09T05:34:16.505Z,102496.53
2022-08-09T05:36:21.120Z,102507.72
2022-08-09T05:38:30.054Z,102509.19
2022-08-09T05:40:34.858Z,102512.25
2022-08-09T05:42:40.240Z,102515.34
2022-08-09T05:44:43.994Z,102515.94
2022-08-09T05:46:47.648Z,102513.88
2022-08-09T05:48:58.950Z,102526.88
2022-08-09T05:51:30.309Z,102533.47
2022-08-09T05:53:31.635Z,102528.44
2022-08-09T05:55:37.167Z,102529.69
2022-08-09T05:57:57.183Z,102529.06
2022-08-09T06:00:01.957Z,102525.63
2022-08-09T06:02:17.090Z,102524.13
2022-08-09T06:04:23.434Z,102512.88
2022-08-09T06:06:28.026Z,102512.09
2022-08-09T06:08:31.733Z,102514.84
2022-08-09T06:10:41.659Z,102521.03
2022-08-09T06:12:52.095Z,102520.19
2022-08-09T06:15:10.089Z,102530.50
2022-08-09T06:17:13.949Z,102533.66
2022-08-09T06:19:17.962Z,102532.16
2022-08-09T06:21:24.673Z,102532.72
2022-08-09T06:23:57.777Z,102535.84
2022-08-09T06:25:55.181Z,102538.13
2022-08-09T06:28:00.844Z,102528.19
2022-08-09T06:30:09.910Z,102518.59
2022-08-09T06:32:59.510Z,102523.03
2022-08-09T06:34:38.153Z,102532.88
2022-08-09T06:36:43.757Z,102523.09
2022-08-09T06:38:50.294Z,102528.06
2022-08-09T06:40:54.953Z,102542.41
2022-08-09T06:43:01.344Z,102546.19
2022-08-09T06:46:07.477Z,102545.16
2022-08-09T06:47:39.870Z,102539.19
2022-08-09T06:50:14.818Z,102535.66
2022-08-09T06:52:09.189Z,102541.06
2022-08-09T06:54:15.004Z,102542.31
2022-08-09T06:56:18.887Z,102543.31
2022-08-09T06:58:40.654Z,102538.00
2022-08-09T07:00:58.759Z,102535.66
2022-08-09T07:03:06.105Z,102541.03
2022-08-09T07:05:10.508Z,102536.03
2022-08-09T07:07:58.853Z,102537.88
2022-08-09T07:11:25.617Z,102537.22
2022-08-09T07:13:30.434Z,102537.56
2022-08-09T07:15:53.870Z,102538.22
2022-08-09T07:18:02.324Z,102542.44
2022-08-09T07:20:08.103Z,102539.09
2022-08-09T07:22:11.955Z,102535.53
2022-08-09T07:24:17.894Z,102529.13
2022-08-09T07:26:23.096Z,102533.28
2022-08-09T07:28:28.363Z,102535.84
2022-08-09T07:30:33.041Z,102533.50
2022-08-09T07:32:37.032Z,102540.41
2022-08-09T07:34:43.904Z,102541.31
2022-08-09T07:36:51.084Z,102532.44
2022-08-09T07:39:00.913Z,102532.53
2022-08-09T07:41:12.043Z,102536.19
2022-08-09T07:43:18.208Z,102542.28
2022-08-09T07:45:37.543Z,102539.28
2022-08-09T07:48:00.872Z,102536.22
2022-08-09T07:50:09.558Z,102535.56
2022-08-09T07:52:17.841Z,102532.44
2022-08-09T07:54:28.218Z,102531.50
2022-08-09T07:56:34.923Z,102533.00
2022-08-09T07:58:42.330Z,102545.16
2022-08-09T08:00:58.915Z,102536.00
2022-08-09T08:03:11.566Z,102542.34
2022-08-09T08:05:18.061Z,102538.84
2022-08-09T08:08:45.216Z,102539.41
2022-08-09T08:09:53.563Z,102537.19
2022-08-09T08:12:24.840Z,102545.50
2022-08-09T08:14:33.516Z,102538.78
2022-08-09T08:16:39.693Z,102535.31
2022-08-09T08:18:55.307Z,102542.56
2022-08-09T08:20:59.596Z,102535.75
2022-08-09T08:23:16.673Z,102540.81
2022-08-09T08:25:21.236Z,102539.53
2022-08-09T08:27:26.155Z,102544.06
2022-08-09T08:29:39.379Z,102539.94
2022-08-09T08:32:03.317Z,102541.03
2022-08-09T08:34:09.328Z,102535.50
2022-08-09T08:36:29.157Z,102546.88
2022-08-09T08:38:33.488Z,102542.56
2022-08-09T08:40:38.037Z,102547.88
2022-08-09T08:42:47.226Z,102550.59
2022-08-09T08:44:56.567Z,102555.31
2022-08-09T08:47:05.043Z,102556.03
2022-08-09T08:49:19.043Z,102543.88
2022-08-09T08:51:24.000Z,102548.38
2022-08-09T08:53:32.201Z,102544.19
2022-08-09T08:55:42.248Z,102535.00
2022-08-09T08:57:56.391Z,102535.41
2022-08-09T09:00:01.526Z,102538.13
2022-08-09T09:02:08.721Z,102534.31
2022-08-09T09:04:14.588Z,102538.69
2022-08-09T09:06:20.882Z,102541.72
2022-08-09T09:08:30.612Z,102545.41
2022-08-09T09:10:36.652Z,102545.72
2022-08-09T09:12:41.508Z,102536.38
2022-08-09T09:14:47.875Z,102540.25
2022-08-09T09:16:52.225Z,102540.31
2022-08-09T09:19:22.555Z,102538.06
2022-08-09T09:21:26.115Z,102538.25
2022-08-09T09:23:41.865Z,102534.31
2022-08-09T09:26:03.097Z,102536.59
2022-08-09T09:28:11.550Z,102533.50
2022-08-09T09:30:40.826Z,102531.97
2022-08-09T09:32:45.360Z,102538.00
2022-08-09T09:35:09.425Z,102541.34
2022-08-09T09:37:32.226Z,102535.41
2022-08-09T09:39:54.510Z,102539.44
2022-08-09T09:41:59.895Z,102538.19
2022-08-09T09:44:12.420Z,102532.63
2022-08-09T09:48:57.953Z,102540.47
2022-08-09T09:51:03.508Z,102528.34
2022-08-09T09:53:09.020Z,102534.66
2022-08-09T09:55:27.818Z,102528.50
2022-08-09T09:58:01.333Z,102521.13
2022-08-09T09:59:59.729Z,102528.69
2022-08-09T10:02:03.881Z,102530.53
2022-08-09T10:04:16.317Z,102526.97
2022-08-09T10:06:32.178Z,102526.97
2022-08-09T10:08:43.090Z,102523.81
2022-08-09T10:10:59.257Z,102516.09
2022-08-09T10:13:03.048Z,102520.75
2022-08-09T10:15:17.458Z,102524.22
2022-08-09T10:17:50.365Z,102521.91
2022-08-09T10:19:59.295Z,102516.59
2022-08-09T10:22:05.178Z,102518.25
2022-08-09T10:24:09.709Z,102530.19
2022-08-09T10:26:21.636Z,102522.19
2022-08-09T10:28:29.273Z,102521.84
2022-08-09T10:32:13.583Z,102521.47
2022-08-09T10:32:57.526Z,102520.78
2022-08-09T10:35:03.337Z,102525.81
2022-08-09T10:37:09.874Z,102516.13
2022-08-09T10:39:21.116Z,102518.13
2022-08-09T10:41:24.775Z,102527.53
2022-08-09T10:43:36.109Z,102529.09
2022-08-09T10:45:59.965Z,102523.97
2022-08-09T10:48:19.382Z,102520.00
2022-08-09T10:51:03.672Z,102517.97
2022-08-09T10:53:21.306Z,102514.66
2022-08-09T10:55:28.475Z,102524.03
2022-08-09T10:57:41.804Z,102516.91
2022-08-09T10:59:58.114Z,102513.25
2022-08-09T11:03:16.372Z,102511.91
2022-08-09T11:04:32.601Z,102503.34
2022-08-09T11:07:57.934Z,102509.00
2022-08-09T11:09:59.801Z,102503.53
2022-08-09T11:12:17.229Z,102503.94
2022-08-09T11:14:32.436Z,102504.41
2022-08-09T11:16:39.201Z,102500.47
2022-08-09T11:18:46.254Z,102501.63
2022-08-09T11:20:53.006Z,102499.34
2022-08-09T11:23:10.066Z,102501.53
2022-08-09T11:25:16.596Z,102498.09
2022-08-09T11:28:02.394Z,102503.22
2022-08-09T11:30:04.841Z,102498.41
2022-08-09T11:32:46.552Z,102492.44
2022-08-09T11:34:53.467Z,102497.16
2022-08-09T11:37:00.590Z,102494.13
2022-08-09T11:39:05.599Z,102494.44
2022-08-09T11:41:37.867Z,102489.56
2022-08-09T11:43:49.090Z,102489.53
2022-08-09T11:45:57.611Z,102491.84
2022-08-09T11:48:11.104Z,102491.34
2022-08-09T11:50:57.034Z,102491.16
2022-08-09T11:54:01.695Z,102491.16
2022-08-09T11:58:50.185Z,102480.59
2022-08-09T12:00:56.361Z,102483.84
2022-08-09T12:03:40.972Z,102479.91
2022-08-09T12:05:37.994Z,102479.03
2022-08-09T12:07:44.630Z,102473.00
2022-08-09T12:09:51.284Z,102461.13
2022-08-09T12:12:03.378Z,102469.03
2022-08-09T12:14:12.406Z,102466.00
2022-08-09T12:16:39.850Z,102469.88
2022-08-09T12:18:48.988Z,102464.19
2022-08-09T12:21:00.295Z,102469.34
2022-08-09T12:23:05.483Z,102472.94
2022-08-09T12:25:14.878Z,102475.09
2022-08-09T12:29:10.358Z,102469.25
2022-08-09T12:30:01.910Z,102474.28
2022-08-09T12:32:27.210Z,102471.16
2022-08-09T12:34:35.027Z,102465.03
2022-08-09T12:36:52.760Z,102472.53
2022-08-09T12:39:04.220Z,102476.50
2022-08-09T12:41:08.653Z,102466.66
2022-08-09T12:43:14.482Z,102469.69
2022-08-09T12:45:34.672Z,102476.13
2022-08-09T12:47:45.043Z,102474.44
2022-08-09T12:50:11.617Z,102481.97
2022-08-09T12:52:15.627Z,102476.09
2022-08-09T12:54:23.893Z,102469.13
2022-08-09T12:56:39.619Z,102475.09
2022-08-09T12:59:08.064Z,102465.22
2022-08-09T13:01:26.742Z,102470.19
2022-08-09T13:03:53.780Z,102459.78
2022-08-09T13:06:14.524Z,102458.84
2022-08-09T13:08:40.062Z,102456.63
2022-08-09T13:10:52.468Z,102454.34
2022-08-09T13:13:09.599Z,102454.09
2022-08-09T13:15:15.023Z,102458.75
2022-08-09T13:17:58.627Z,102449.78
2022-08-09T13:20:10.653Z,102449.88
2022-08-09T13:22:36.527Z,102448.34
2022-08-09T13:24:53.838Z,102443.63
2022-08-09T13:26:58.870Z,102442.38
2022-08-09T13:29:07.744Z,102446.63
2022-08-09T13:32:15.991Z,102439.06
2022-08-09T13:33:53.015Z,102439.66
2022-08-09T13:36:24.422Z,102436.97
2022-08-09T13:38:56.253Z,102431.53
2022-08-09T13:41:51.585Z,102433.84
2022-08-09T13:43:09.955Z,102428.69
2022-08-09T13:45:19.928Z,102426.44
2022-08-09T13:47:31.331Z,102427.84
2022-08-09T13:49:57.550Z,102427.84
2022-08-09T13:52:08.897Z,102426.00
2022-08-09T13:54:13.448Z,102427.56
2022-08-09T13:56:18.199Z,102418.03
2022-08-09T13:58:23.926Z,102422.47
2022-08-09T14:00:30.470Z,102421.88
2022-08-09T14:02:42.233Z,102427.75
2022-08-09T14:04:49.370Z,102419.59
2022-08-09T14:07:05.951Z,102414.06
2022-08-09T14:09:11.224Z,102411.94
2022-08-09T14:11:16.601Z,102407.50
2022-08-09T14:13:27.643Z,102400.69
2022-08-09T14:16:06.513Z,102406.50
2022-08-09T14:18:18.613Z,102406.09
2022-08-09T14:20:19.562Z,102397.84
2022-08-09T14:22:24.602Z,102400.94
2022-08-09T14:24:32.546Z,102406.25
2022-08-09T14:26:37.665Z,102399.94
2022-08-09T14:28:41.638Z,102403.53
2022-08-09T14:30:45.594Z,102398.81
2022-08-09T14:32:50.692Z,102402.50
2022-08-09T14:34:55.775Z,102402.25
2022-08-09T14:37:01.599Z,102398.28
2022-08-09T14:39:08.931Z,102405.09
2022-08-09T14:41:39.830Z,102399.13
2022-08-09T14:43:46.941Z,102390.44
2022-08-09T14:46:57.172Z,102388.28
2022-08-09T14:48:15.523Z,102389.88
2022-08-09T14:50:20.750Z,102389.16
2022-08-09T14:52:25.379Z,102398.69
2022-08-09T14:54:30.465Z,102388.16
2022-08-09T14:56:57.287Z,102394.81
2022-08-09T14:59:01.492Z,102389.41
2022-08-09T15:01:05.757Z,102384.00
2022-08-09T15:03:10.932Z,102390.03
2022-08-09T15:05:16.093Z,102388.31
2022-08-09T15:07:20.069Z,102385.72
2022-08-09T15:09:51.954Z,102396.09
2022-08-09T15:11:49.781Z,102381.19
2022-08-09T15:14:01.627Z,102387.31
2022-08-09T15:16:10.167Z,102384.16
2022-08-09T15:18:14.738Z,102375.34
2022-08-09T15:22:00.856Z,102374.50
2022-08-09T15:22:46.649Z,102376.63
2022-08-09T15:24:51.185Z,102370.50
2022-08-09T15:26:57.946Z,102367.53
2022-08-09T15:29:04.982Z,102366.81
2022-08-09T15:31:13.330Z,102364.13
2022-08-09T15:33:28.053Z,102368.25
2022-08-09T15:36:01.913Z,102372.38
2022-08-09T15:38:11.883Z,102363.13
2022-08-09T15:40:19.878Z,102368.84
2022-08-09T15:42:25.514Z,102366.38
2022-08-09T15:44:29.293Z,102365.41
2022-08-09T15:46:36.505Z,102360.56
2022-08-09T15:48:42.650Z,102361.00
2022-08-09T15:51:30.340Z,102354.72
2022-08-09T15:54:04.484Z,102362.13
2022-08-09T15:56:21.079Z,102360.28
2022-08-09T15:58:26.530Z,102359.59
2022-08-09T16:00:31.143Z,102362.41
2022-08-09T16:02:36.008Z,102348.88
2022-08-09T16:04:39.723Z,102351.31
2022-08-09T16:06:50.494Z,102351.03
2022-08-09T16:08:56.299Z,102349.91
2022-08-09T16:11:05.555Z,102348.91
2022-08-09T16:13:20.948Z,102352.44
2022-08-09T16:16:10.740Z,102350.72
2022-08-09T16:18:01.704Z,102345.19
2022-08-09T16:20:09.230Z,102338.22
2022-08-09T16:22:15.851Z,102337.69
2022-08-09T16:24:29.990Z,102338.66
2022-08-09T16:26:37.482Z,102336.53
2022-08-09T16:28:41.532Z,102343.34
2022-08-09T16:30:58.432Z,102338.53
2022-08-09T16:33:11.886Z,102336.25
2022-08-09T16:35:56.035Z,102336.25
2022-08-09T16:37:54.448Z,102334.56
2022-08-09T16:40:05.476Z,102333.13
2022-08-09T16:42:09.519Z,102336.34
2022-08-09T16:44:19.325Z,102337.81
2022-08-09T16:46:27.500Z,102331.41
2022-08-09T16:48:40.193Z,102334.81
2022-08-09T16:50:59.708Z,102337.50
2022-08-09T16:53:12.287Z,102340.38
2022-08-09T16:55:19.468Z,102346.47
2022-08-09T16:57:23.374Z,102341.31
2022-08-09T16:59:27.449Z,102349.72
2022-08-09T17:01:43.117Z,102339.34
2022-08-09T17:03:55.003Z,102341.16
2022-08-09T17:06:07.520Z,102343.19
2022-08-09T17:08:44.381Z,102349.28
2022-08-09T17:10:47.660Z,102347.31
2022-08-09T17:12:56.508Z,102345.28
2022-08-09T17:15:00.289Z,102337.31
2022-08-09T17:17:26.079Z,102346.41
2022-08-09T17:19:46.545Z,102332.88
2022-08-09T17:21:56.063Z,102336.56
2022-08-09T17:24:21.122Z,102338.97
2022-08-09T17:26:31.342Z,102333.31
2022-08-09T17:28:36.225Z,102338.72
2022-08-09T17:30:40.654Z,102334.31
2022-08-09T17:32:52.914Z,102341.81
2022-08-09T17:35:07.596Z,102342.09
2022-08-09T17:37:19.966Z,102345.78
2022-08-09T17:39:25.594Z,102343.53
2022-08-09T17:41:49.950Z,102337.72
2022-08-09T17:44:38.088Z,102352.09
2022-08-09T17:46:18.420Z,102346.97
2022-08-09T17:48:46.486Z,102349.09
2022-08-09T17:50:59.251Z,102350.06
2022-08-09T17:53:21.599Z,102347.38
2022-08-09T17:55:34.474Z,102338.97
2022-08-09T17:58:03.023Z,102341.25
2022-08-09T18:00:09.747Z,102342.09
2022-08-09T18:02:19.733Z,102339.38
2022-08-09T18:04:31.524Z,102345.31
2022-08-09T18:06:36.759Z,102345.00
2022-08-09T18:08:41.262Z,102347.44
2022-08-09T18:10:46.183Z,102353.81
2022-08-09T18:13:39.363Z,102342.41
2022-08-09T18:15:50.667Z,102347.66
2022-08-09T18:18:03.377Z,102351.94
2022-08-09T18:20:59.879Z,102350.13
2022-08-09T18:22:34.475Z,102341.00
2022-08-09T18:24:38.249Z,102349.38
2022-08-09T18:26:46.266Z,102347.66
2022-08-09T18:30:39.172Z,102341.28
2022-08-09T18:31:14.953Z,102342.28
2022-08-09T18:33:28.578Z,102342.53
2022-08-09T18:36:00.009Z,102338.38
2022-08-09T18:37:58.927Z,102350.44
2022-08-09T18:40:03.109Z,102349.69
2022-08-09T18:42:08.084Z,102347.00
2022-08-09T18:44:13.758Z,102350.44
2022-08-09T18:46:47.091Z,102349.97
2022-08-09T18:48:42.275Z,102348.53
2022-08-09T18:50:47.862Z,102353.22
2022-08-09T18:52:51.461Z,102342.59
2022-08-09T18:54:55.675Z,102350.69
2022-08-09T18:57:05.938Z,102344.03
2022-08-09T18:59:10.477Z,102355.38
2022-08-09T19:01:14.249Z,102351.88
2022-08-09T19:03:19.418Z,102347.91
2022-08-09T19:05:28.767Z,102346.09
2022-08-09T19:08:04.339Z,102346.63
2022-08-09T19:10:17.912Z,102345.03
2022-08-09T19:12:22.033Z,102346.16
2022-08-09T19:14:29.380Z,102349.00
2022-08-09T19:16:36.605Z,102343.88
2022-08-09T19:18:45.394Z,102350.41
2022-08-09T19:20:52.288Z,102355.78
2022-08-09T19:23:05.460Z,102357.06
2022-08-09T19:25:41.971Z,102352.31
2022-08-09T19:27:36.092Z,102357.66
2022-08-09T19:30:21.577Z,102357.31
2022-08-09T19:32:05.583Z,102356.72
2022-08-09T19:34:09.547Z,102358.56
2022-08-09T19:36:30.958Z,102356.44
2022-08-09T19:38:39.831Z,102358.50
2022-08-09T19:40:43.931Z,102347.41
2022-08-09T19:42:53.565Z,102352.59
2022-08-09T19:44:57.752Z,102353.00
2022-08-09T19:47:01.705Z,102359.69
2022-08-09T19:50:10.247Z,102360.94
2022-08-09T19:51:31.075Z,102363.91
2022-08-09T19:53:37.281Z,102359.63
2022-08-09T19:56:03.307Z,102361.88
2022-08-09T19:58:16.173Z,102355.88
2022-08-09T20:00:20.999Z,102367.88
2022-08-09T20:04:24.030Z,102366.44
2022-08-09T20:04:54.882Z,102358.97
2022-08-09T20:06:59.692Z,102365.72
2022-08-09T20:09:07.812Z,102366.97
2022-08-09T20:11:13.899Z,102374.34
2022-08-09T20:13:20.705Z,102365.38
2022-08-09T20:16:38.603Z,102366.25
2022-08-09T20:17:54.702Z,102370.91
2022-08-09T20:19:58.892Z,102371.03
2022-08-09T20:22:02.827Z,102374.69
2022-08-09T20:24:09.238Z,102370.41
2022-08-09T20:26:15.458Z,102374.19
2022-08-09T20:28:28.041Z,102378.25
2022-08-09T20:30:38.283Z,102380.34
2022-08-09T20:32:48.107Z,102378.91
2022-08-09T20:34:52.001Z,102378.28
2022-08-09T20:36:56.012Z,102378.75
2022-08-09T20:39:28.581Z,102372.25
2022-08-09T20:41:32.197Z,102372.75
2022-08-09T20:43:39.458Z,102372.16
2022-08-09T20:46:00.566Z,102377.78
2022-08-09T20:48:13.062Z,102371.78
2022-08-09T20:50:47.789Z,102374.94
2022-08-09T20:52:49.073Z,102377.28
2022-08-09T20:54:56.677Z,102374.94
2022-08-09T20:57:03.913Z,102381.91
2022-08-09T20:59:08.089Z,102384.34
2022-08-09T21:01:35.443Z,102382.00
2022-08-09T21:04:07.654Z,102386.16
2022-08-09T21:06:04.104Z,102383.81
2022-08-09T21:08:08.934Z,102381.47
2022-08-09T21:10:14.587Z,102382.56
2022-08-09T21:12:19.586Z,102380.25
2022-08-09T21:14:23.212Z,102382.16
2022-08-09T21:16:30.310Z,102376.19
2022-08-09T21:18:34.663Z,102386.44
2022-08-09T21:20:58.466Z,102384.91
2022-08-09T21:23:02.351Z,102382.47
2022-08-09T21:25:44.293Z,102388.06
2022-08-09T21:27:59.482Z,102379.50
2022-08-09T21:30:04.467Z,102378.63
2022-08-09T21:32:09.074Z,102381.44
2022-08-09T21:34:29.482Z,102379.97
2022-08-09T21:36:33.403Z,102383.25
2022-08-09T21:38:37.652Z,102377.34
2022-08-09T21:40:43.365Z,102372.31
2022-08-09T21:42:54.579Z,102381.56
2022-08-09T21:44:59.885Z,102377.38
2022-08-09T21:47:05.203Z,102378.59
2022-08-09T21:49:09.219Z,102377.09
2022-08-09T21:51:16.645Z,102373.81
2022-08-09T21:53:40.070Z,102375.22
2022-08-09T21:55:46.462Z,102367.50
2022-08-09T21:57:58.863Z,102375.03
2022-08-09T22:00:07.147Z,102364.53
2022-08-09T22:02:35.976Z,102369.38
2022-08-09T22:04:56.649Z,102363.03
2022-08-09T22:07:04.801Z,102369.47
2022-08-09T22:09:11.040Z,102369.72
2022-08-09T22:12:05.613Z,102368.22
2022-08-09T22:13:38.583Z,102367.56
2022-08-09T22:15:48.157Z,102367.00
2022-08-09T22:17:52.159Z,102362.63
2022-08-09T22:19:59.734Z,102363.72
2022-08-09T22:22:04.579Z,102360.38
2022-08-09T22:24:08.530Z,102360.59
2022-08-09T22:26:34.095Z,102362.53
2022-08-09T22:28:47.095Z,102366.41
2022-08-09T22:30:58.224Z,102370.25
2022-08-09T22:33:01.759Z,102362.31
2022-08-09T22:36:00.700Z,102353.66
2022-08-09T22:37:40.020Z,102351.19
2022-08-09T22:39:55.565Z,102355.81
2022-08-09T22:42:02.704Z,102346.38
2022-08-09T22:44:07.526Z,102348.41
2022-08-09T22:48:15.522Z,102344.97
2022-08-09T22:48:38.853Z,102349.81
2022-08-09T22:50:54.226Z,102345.63
2022-08-09T22:52:58.631Z,102346.81
2022-08-09T22:55:02.552Z,102341.66
2022-08-09T22:57:06.525Z,102341.75
2022-08-09T22:59:56.206Z,102341.03
2022-08-09T23:01:40.765Z,102343.03
2022-08-09T23:04:03.243Z,102344.13
2022-08-09T23:06:08.115Z,102334.47
2022-08-09T23:08:31.989Z,102334.56
2022-08-09T23:10:38.199Z,102332.00
2022-08-09T23:12:45.608Z,102340.25
2022-08-09T23:14:49.168Z,102325.38
2022-08-09T23:16:59.188Z,102330.06
2022-08-09T23:19:02.817Z,102324.06
2022-08-09T23:21:06.895Z,102327.72
2022-08-09T23:23:10.916Z,102328.78
2022-08-09T23:25:14.822Z,102318.28
2022-08-09T23:27:18.617Z,102322.94
2022-08-09T23:29:22.189Z,102316.09
2022-08-09T23:31:25.933Z,102320.78
2022-08-09T23:33:31.362Z,102319.09
2022-08-09T23:36:04.507Z,102318.22
2022-08-09T23:37:59.961Z,102315.66
2022-08-09T23:40:03.932Z,102314.81
2022-08-09T23:42:07.744Z,102316.72
2022-08-09T23:44:11.302Z,102317.66
2022-08-09T23:46:15.369Z,102318.75
2022-08-09T23:48:19.846Z,102317.13
2022-08-09T23:50:24.945Z,102321.84
2022-08-09T23:52:28.597Z,102316.69
2022-08-09T23:54:34.688Z,102316.03
2022-08-09T23:56:52.325Z,102309.06
2022-08-09T23:58:58.680Z,102312.78
